Time;durP1;ratioP1;P1;durP2;ratioP2;P2;SDS_P1;SDS_P2;PMS_P1;PMS_P2;Temp;Humidity;BMP_temperature;BMP_pressure;BME280_temperature;BME280_humidity;BME280_pressure;Samples;Min_cycle;Max_cycle;Signal;HPM_P1;HPM_P2
2021/05/05 00:01:56;;;;;;;2.20;1.23;;;14.80;99.90;;;;;;5068696;28;20140;-58
2021/05/05 00:04:22;;;;;;;5.28;1.33;;;14.70;99.90;;;;;;5068290;28;20789;-59
2021/05/05 00:06:48;;;;;;;2.63;1.50;;;14.70;99.90;;;;;;5068646;28;20016;-58
2021/05/05 00:09:14;;;;;;;5.90;1.92;;;14.70;99.90;;;;;;5068058;28;20036;-58
2021/05/05 00:11:41;;;;;;;1.60;1.10;;;14.60;99.90;;;;;;5068002;28;20127;-58
2021/05/05 00:14:08;;;;;;;2.22;1.23;;;14.60;99.90;;;;;;5068119;28;20053;-58
2021/05/05 00:16:34;;;;;;;3.72;1.85;;;14.50;99.90;;;;;;5067894;28;20099;-58
2021/05/05 00:19:01;;;;;;;3.45;1.60;;;14.50;99.90;;;;;;5068397;28;20116;-58
2021/05/05 00:21:28;;;;;;;4.75;1.88;;;14.60;99.90;;;;;;5067753;28;20090;-58
2021/05/05 00:23:54;;;;;;;3.17;1.90;;;14.60;99.90;;;;;;5068023;28;20410;-58
2021/05/05 00:26:20;;;;;;;4.72;2.03;;;14.50;99.90;;;;;;5068263;28;20024;-57
2021/05/05 00:28:46;;;;;;;2.42;1.55;;;14.50;99.90;;;;;;5068650;28;20035;-58
2021/05/05 00:31:13;;;;;;;3.25;2.00;;;14.40;99.90;;;;;;5067960;28;20107;-57
2021/05/05 00:33:38;;;;;;;3.92;2.13;;;14.40;99.90;;;;;;5067682;28;20025;-57
2021/05/05 00:36:04;;;;;;;2.88;1.95;;;14.30;99.90;;;;;;5067634;28;20028;-58
2021/05/05 00:38:31;;;;;;;4.55;2.83;;;14.30;99.90;;;;;;5067668;28;20043;-57
2021/05/05 00:40:56;;;;;;;4.18;2.42;;;14.10;99.90;;;;;;5067616;28;20486;-58
2021/05/05 00:43:22;;;;;;;5.32;2.20;;;14.00;99.90;;;;;;5067625;28;20037;-58
2021/05/05 00:45:47;;;;;;;4.63;2.58;;;13.90;99.90;;;;;;5068363;28;20023;-58
2021/05/05 00:48:14;;;;;;;2.55;2.15;;;13.80;99.90;;;;;;5067610;28;20048;-58
2021/05/05 00:50:42;;;;;;;5.30;2.47;;;13.60;99.90;;;;;;5067103;28;20534;-58
2021/05/05 00:53:08;;;;;;;3.55;2.15;;;13.70;99.90;;;;;;5067748;28;20028;-58
2021/05/05 00:55:34;;;;;;;4.00;2.25;;;13.60;99.90;;;;;;5067555;28;20028;-57
2021/05/05 00:58:00;;;;;;;3.20;1.85;;;13.40;99.90;;;;;;5067930;28;20048;-58
2021/05/05 01:00:26;;;;;;;5.07;2.22;;;13.40;99.90;;;;;;5067253;28;20063;-57
2021/05/05 01:02:51;;;;;;;3.28;2.22;;;13.30;99.90;;;;;;5067476;28;20509;-58
2021/05/05 01:05:17;;;;;;;2.70;2.00;;;13.30;99.90;;;;;;5066933;28;20024;-57
2021/05/05 01:07:43;;;;;;;3.60;2.30;;;13.30;99.90;;;;;;5067147;28;20029;-57
2021/05/05 01:10:11;;;;;;;2.65;2.03;;;13.20;99.90;;;;;;5066741;28;20119;-58
2021/05/05 01:12:37;;;;;;;3.42;2.00;;;13.30;99.90;;;;;;5067068;28;20032;-57
2021/05/05 01:15:05;;;;;;;4.28;2.42;;;13.20;99.90;;;;;;5066856;28;20466;-58
2021/05/05 01:17:33;;;;;;;4.07;2.40;;;13.10;99.90;;;;;;5066676;28;20058;-57
2021/05/05 01:19:59;;;;;;;3.28;2.50;;;13.00;99.90;;;;;;5067219;28;20021;-57
2021/05/05 01:22:26;;;;;;;3.35;2.03;;;13.00;99.90;;;;;;5067048;28;20033;-55
2021/05/05 01:24:52;;;;;;;3.30;2.22;;;13.00;99.90;;;;;;5066966;28;20024;-56
2021/05/05 01:27:18;;;;;;;4.85;2.10;;;12.90;99.90;;;;;;5067509;28;20036;-57
2021/05/05 01:29:47;;;;;;;3.13;2.20;;;12.80;99.90;;;;;;5066753;28;20079;-57
2021/05/05 01:32:13;;;;;;;4.85;2.15;;;12.70;99.90;;;;;;5067104;28;20474;-57
2021/05/05 01:34:38;;;;;;;3.35;2.15;;;12.60;99.90;;;;;;5066573;28;20110;-57
2021/05/05 01:37:05;;;;;;;4.57;2.28;;;12.60;99.90;;;;;;5066466;28;20025;-57
2021/05/05 01:39:31;;;;;;;2.38;1.70;;;12.60;99.90;;;;;;5066567;28;20013;-57
2021/05/05 01:41:57;;;;;;;3.10;2.00;;;12.60;99.90;;;;;;5066694;28;20028;-58
2021/05/05 01:44:36;;;;;;;2.67;2.30;;;12.70;99.90;;;;;;5066396;28;20024;-57
2021/05/05 01:47:03;;;;;;;2.55;2.00;;;12.70;99.90;;;;;;5066485;28;20635;-57
2021/05/05 01:49:30;;;;;;;2.08;1.85;;;12.60;99.90;;;;;;5066480;28;20024;-57
2021/05/05 01:52:02;;;;;;;3.83;2.28;;;12.70;99.90;;;;;;5066230;28;20228;-58
2021/05/05 01:54:27;;;;;;;3.70;2.45;;;12.60;99.90;;;;;;5066031;28;20027;-58
2021/05/05 01:56:53;;;;;;;3.50;2.45;;;12.60;99.90;;;;;;5066146;28;20032;-58
2021/05/05 01:59:20;;;;;;;4.03;2.20;;;12.60;99.90;;;;;;5067112;28;20200;-57
2021/05/05 02:01:46;;;;;;;2.45;2.25;;;12.60;99.90;;;;;;5066311;28;20017;-57
2021/05/05 02:04:13;;;;;;;2.80;1.98;;;12.60;99.90;;;;;;5066402;28;20031;-57
2021/05/05 02:06:39;;;;;;;3.33;2.28;;;12.50;99.90;;;;;;5065646;28;20445;-57
2021/05/05 02:09:07;;;;;;;3.50;1.90;;;12.60;99.90;;;;;;5065288;28;20071;-57
2021/05/05 02:11:33;;;;;;;1.90;1.70;;;12.60;99.90;;;;;;5065908;28;20016;-57
2021/05/05 02:13:58;;;;;;;2.28;1.63;;;12.60;99.90;;;;;;5066077;28;20031;-57
2021/05/05 02:16:25;;;;;;;2.63;1.70;;;12.60;99.90;;;;;;5065576;28;20024;-57
2021/05/05 02:18:51;;;;;;;1.88;1.58;;;12.60;99.90;;;;;;5066137;28;20028;-57
2021/05/05 02:21:16;;;;;;;1.50;1.30;;;12.60;99.90;;;;;;5066386;28;20032;-57
2021/05/05 02:23:42;;;;;;;4.72;2.22;;;12.70;99.90;;;;;;5065596;28;20078;-57
2021/05/05 02:26:08;;;;;;;2.67;1.70;;;12.60;99.90;;;;;;5065687;28;20031;-57
2021/05/05 02:28:34;;;;;;;2.70;1.73;;;12.60;99.90;;;;;;5065671;28;20025;-57
2021/05/05 02:31:00;;;;;;;1.90;1.33;;;12.70;99.90;;;;;;5065611;28;20418;-57
2021/05/05 02:33:27;;;;;;;1.98;1.15;;;12.80;99.90;;;;;;5065459;28;20096;-57
2021/05/05 02:35:54;;;;;;;2.05;1.50;;;12.80;99.90;;;;;;5065250;28;20521;-57
2021/05/05 02:38:20;;;;;;;2.05;1.50;;;12.70;99.90;;;;;;5065798;28;20490;-57
2021/05/05 02:40:48;;;;;;;1.40;1.30;;;12.70;99.90;;;;;;5066233;28;20451;-57
2021/05/05 02:43:15;;;;;;;2.60;1.40;;;12.80;99.90;;;;;;5065476;28;20064;-57
2021/05/05 02:45:42;;;;;;;3.72;1.90;;;12.70;99.90;;;;;;5065289;28;20040;-57
2021/05/05 02:48:08;;;;;;;4.13;1.77;;;12.60;99.90;;;;;;5065419;28;20029;-57
2021/05/05 02:50:37;;;;;;;6.43;2.13;;;12.70;99.90;;;;;;5065011;28;20518;-57
2021/05/05 02:53:02;;;;;;;3.80;2.40;;;12.60;99.90;;;;;;5065259;28;20024;-57
2021/05/05 02:55:29;;;;;;;2.30;1.80;;;12.60;99.90;;;;;;5063648;28;20078;-57
2021/05/05 02:57:56;;;;;;;1.83;1.52;;;12.60;99.90;;;;;;5065074;28;20025;-56
2021/05/05 03:00:22;;;;;;;3.75;2.08;;;12.70;99.90;;;;;;5065229;28;20055;-57
2021/05/05 03:02:47;;;;;;;2.85;2.10;;;12.60;99.90;;;;;;5064442;28;20502;-56
2021/05/05 03:05:13;;;;;;;3.25;1.90;;;12.60;99.90;;;;;;5065008;28;20029;-57
2021/05/05 03:07:40;;;;;;;2.72;1.90;;;12.60;99.90;;;;;;5064902;28;20058;-56
2021/05/05 03:10:08;;;;;;;3.20;1.83;;;12.60;99.90;;;;;;5064788;28;20028;-56
2021/05/05 03:12:35;;;;;;;4.80;2.05;;;12.60;99.90;;;;;;5064858;28;20068;-57
2021/05/05 03:15:01;;;;;;;7.82;2.42;;;12.50;99.90;;;;;;5064798;28;20562;-56
2021/05/05 03:17:27;;;;;;;4.75;2.30;;;12.60;99.90;;;;;;5064571;28;20108;-56
2021/05/05 03:19:53;;;;;;;5.03;2.40;;;12.50;99.90;;;;;;5064658;28;20029;-56
2021/05/05 03:22:19;;;;;;;4.30;2.47;;;12.50;99.90;;;;;;5065806;28;20039;-56
2021/05/05 03:24:46;;;;;;;4.30;2.58;;;12.50;99.90;;;;;;5064866;28;20509;-56
2021/05/05 03:27:12;;;;;;;3.47;2.05;;;12.50;99.90;;;;;;5065054;28;20039;-56
2021/05/05 03:29:37;;;;;;;3.38;2.35;;;12.50;99.90;;;;;;5064162;28;20029;-56
2021/05/05 03:32:03;;;;;;;5.57;2.60;;;12.60;99.90;;;;;;5065045;28;20028;-56
2021/05/05 03:34:30;;;;;;;4.38;2.50;;;12.60;99.90;;;;;;5064389;28;20021;-56
2021/05/05 03:36:55;;;;;;;3.22;2.60;;;12.50;99.90;;;;;;5064581;28;20035;-56
2021/05/05 03:39:21;;;;;;;6.85;3.22;;;12.60;99.90;;;;;;5063129;28;20020;-56
2021/05/05 03:41:47;;;;;;;5.07;2.75;;;12.60;99.90;;;;;;5065415;28;20493;-57
2021/05/05 03:44:12;;;;;;;4.72;2.50;;;12.60;99.90;;;;;;5063887;28;20020;-57
2021/05/05 03:46:38;;;;;;;4.85;1.95;;;12.60;99.90;;;;;;5071897;28;20167;-57
2021/05/05 03:49:06;;;;;;;3.90;2.13;;;12.60;99.90;;;;;;5067902;28;20025;-56
2021/05/05 03:51:32;;;;;;;2.35;1.92;;;12.60;99.90;;;;;;5065962;28;20073;-56
2021/05/05 03:53:58;;;;;;;3.42;2.25;;;12.60;99.90;;;;;;5066105;28;20051;-57
2021/05/05 03:56:23;;;;;;;3.75;2.10;;;12.70;99.90;;;;;;5065509;28;20122;-56
2021/05/05 03:58:49;;;;;;;4.28;2.45;;;12.70;99.90;;;;;;5066691;28;20017;-56
2021/05/05 04:01:15;;;;;;;5.28;2.10;;;12.70;99.90;;;;;;5066450;28;20052;-56
2021/05/05 04:03:40;;;;;;;3.17;2.10;;;12.70;99.90;;;;;;5065697;28;20029;-56
2021/05/05 04:06:07;;;;;;;5.57;1.95;;;12.70;99.90;;;;;;5065913;28;20479;-56
2021/05/05 04:08:33;;;;;;;5.13;2.42;;;12.70;99.90;;;;;;5065326;28;20020;-56
2021/05/05 04:10:58;;;;;;;2.95;1.50;;;12.70;99.90;;;;;;5065660;28;20034;-56
2021/05/05 04:13:24;;;;;;;2.60;1.83;;;12.50;99.90;;;;;;5065300;28;20033;-57
2021/05/05 04:15:51;;;;;;;6.22;1.70;;;12.50;99.90;;;;;;5064973;28;20035;-57
2021/05/05 04:18:17;;;;;;;4.95;2.25;;;12.50;99.90;;;;;;5064450;28;20024;-57
2021/05/05 04:20:43;;;;;;;4.78;1.95;;;12.50;99.90;;;;;;5064086;28;20519;-57
2021/05/05 04:23:10;;;;;;;4.22;2.20;;;12.50;99.90;;;;;;5064386;28;20563;-57
2021/05/05 04:25:36;;;;;;;2.78;1.85;;;12.40;99.90;;;;;;5063734;28;20099;-57
2021/05/05 04:28:02;;;;;;;3.65;1.85;;;12.20;99.90;;;;;;5064027;28;20117;-55
2021/05/05 04:30:28;;;;;;;2.45;1.33;;;12.10;99.90;;;;;;5063792;28;20024;-55
2021/05/05 04:32:54;;;;;;;1.58;1.23;;;12.10;99.90;;;;;;5064536;28;20359;-56
2021/05/05 04:35:21;;;;;;;3.08;1.98;;;12.10;99.90;;;;;;5064123;28;20151;-56
2021/05/05 04:37:47;;;;;;;1.88;1.40;;;11.90;99.90;;;;;;5064813;28;20506;-57
2021/05/05 04:40:13;;;;;;;1.20;0.93;;;11.60;99.90;;;;;;5065561;28;20046;-57
2021/05/05 04:42:39;;;;;;;0.70;0.70;;;11.50;99.90;;;;;;5067602;28;20025;-57
2021/05/05 04:45:06;;;;;;;0.63;0.50;;;11.50;99.90;;;;;;5067827;28;20082;-57
2021/05/05 04:47:33;;;;;;;0.80;0.70;;;11.50;99.90;;;;;;5067172;28;20028;-56
2021/05/05 04:50:01;;;;;;;0.88;0.52;;;11.60;99.90;;;;;;5067675;28;20029;-57
2021/05/05 04:52:27;;;;;;;0.88;0.60;;;11.50;99.90;;;;;;5065585;28;20052;-57
2021/05/05 04:54:54;;;;;;;1.27;0.98;;;11.50;99.90;;;;;;5067485;28;20462;-57
2021/05/05 04:57:21;;;;;;;2.30;1.20;;;11.60;99.90;;;;;;5067898;28;20033;-57
2021/05/05 04:59:47;;;;;;;1.83;0.80;;;11.50;99.90;;;;;;5068165;28;20020;-57
2021/05/05 05:02:12;;;;;;;0.82;0.80;;;11.60;99.90;;;;;;5067212;28;20036;-58
2021/05/05 05:04:39;;;;;;;1.00;1.00;;;11.50;99.90;;;;;;5066909;28;20068;-57
2021/05/05 05:07:06;;;;;;;1.20;0.90;;;11.50;99.90;;;;;;5067351;28;20401;-57
2021/05/05 05:09:32;;;;;;;0.80;0.75;;;11.50;99.90;;;;;;5066785;28;20025;-58
2021/05/05 05:11:59;;;;;;;1.20;0.50;;;11.60;99.90;;;;;;5067247;28;20051;-57
2021/05/05 05:14:24;;;;;;;0.47;0.47;;;11.50;99.90;;;;;;5066957;28;20075;-57
2021/05/05 05:16:50;;;;;;;0.60;0.55;;;11.50;99.90;;;;;;5067831;28;20478;-57
2021/05/05 05:19:16;;;;;;;0.85;0.80;;;11.60;99.90;;;;;;5067572;28;20029;-58
2021/05/05 05:21:41;;;;;;;1.70;1.45;;;11.70;99.90;;;;;;5066857;28;20567;-57
2021/05/05 05:24:08;;;;;;;1.88;1.52;;;11.50;99.90;;;;;;5067263;28;20024;-58
2021/05/05 05:26:34;;;;;;;2.50;1.58;;;11.60;99.90;;;;;;5066694;28;20530;-58
2021/05/05 05:29:01;;;;;;;2.53;1.50;;;11.70;99.90;;;;;;5067197;28;20024;-57
2021/05/05 05:31:27;;;;;;;2.38;1.23;;;11.10;99.90;;;;;;5066524;28;20498;-57
2021/05/05 05:33:53;;;;;;;1.58;1.10;;;10.80;99.90;;;;;;5066829;28;20127;-57
2021/05/05 05:36:20;;;;;;;3.35;1.48;;;10.80;99.90;;;;;;5067407;28;20722;-58
2021/05/05 05:38:47;;;;;;;1.30;1.02;;;10.80;99.90;;;;;;5067290;28;20411;-57
2021/05/05 05:41:13;;;;;;;1.27;1.00;;;10.80;99.90;;;;;;5066849;28;20464;-57
2021/05/05 05:43:40;;;;;;;1.70;0.73;;;10.80;99.90;;;;;;5066449;28;20039;-57
2021/05/05 05:46:07;;;;;;;1.30;1.08;;;11.00;99.90;;;;;;5066308;28;20495;-57
2021/05/05 05:48:32;;;;;;;1.60;0.90;;;11.00;99.90;;;;;;5066298;28;20039;-57
2021/05/05 05:50:59;;;;;;;1.70;1.02;;;11.20;99.90;;;;;;5066445;28;20029;-58
2021/05/05 05:53:25;;;;;;;2.20;1.27;;;11.10;99.90;;;;;;5066239;28;20028;-57
2021/05/05 05:55:51;;;;;;;2.00;0.95;;;11.30;99.90;;;;;;5066366;28;20017;-58
2021/05/05 05:58:18;;;;;;;1.30;1.20;;;11.30;99.90;;;;;;5066803;28;20051;-57
2021/05/05 06:00:43;;;;;;;2.50;1.60;;;11.40;99.90;;;;;;5066340;28;20033;-57
2021/05/05 06:03:10;;;;;;;1.35;1.20;;;11.30;99.90;;;;;;5066030;28;20035;-57
2021/05/05 06:05:37;;;;;;;1.95;1.20;;;11.20;99.90;;;;;;5065926;28;20060;-58
2021/05/05 06:08:04;;;;;;;1.58;1.10;;;11.00;99.90;;;;;;5065507;28;20446;-57
2021/05/05 06:10:30;;;;;;;2.92;1.00;;;11.00;99.90;;;;;;5064487;28;20152;-57
2021/05/05 06:12:56;;;;;;;1.05;0.63;;;11.10;99.90;;;;;;5066575;28;20044;-58
2021/05/05 06:15:23;;;;;;;0.82;0.65;;;11.10;99.90;;;;;;5065505;28;20114;-58
2021/05/05 06:17:49;;;;;;;2.65;0.93;;;11.10;99.90;;;;;;5066136;28;20032;-57
2021/05/05 06:20:16;;;;;;;1.92;1.02;;;11.10;99.90;;;;;;5066241;28;20025;-57
2021/05/05 06:22:43;;;;;;;3.10;1.73;;;11.10;99.90;;;;;;5065688;28;20107;-57
2021/05/05 06:25:10;;;;;;;4.72;2.58;;;11.10;99.90;;;;;;5065965;28;20101;-57
2021/05/05 06:27:37;;;;;;;4.55;2.58;;;11.20;99.90;;;;;;5065228;28;20168;-57
2021/05/05 06:30:05;;;;;;;2.75;1.75;;;11.10;99.90;;;;;;5065700;28;20020;-57
2021/05/05 06:32:31;;;;;;;2.78;1.27;;;11.00;99.90;;;;;;5065498;28;20465;-57
2021/05/05 06:34:56;;;;;;;2.13;1.10;;;10.90;99.90;;;;;;5065682;28;20029;-57
2021/05/05 06:37:23;;;;;;;1.50;1.00;;;10.90;99.90;;;;;;5065423;28;20028;-57
2021/05/05 06:39:49;;;;;;;3.05;1.35;;;11.00;99.90;;;;;;5066230;28;20028;-57
2021/05/05 06:42:15;;;;;;;4.70;1.20;;;11.00;99.90;;;;;;5065484;28;20032;-57
2021/05/05 06:44:41;;;;;;;4.50;1.40;;;10.90;99.90;;;;;;5065059;28;20078;-57
2021/05/05 06:47:07;;;;;;;3.33;1.40;;;10.80;99.90;;;;;;5065428;28;20032;-57
2021/05/05 06:49:35;;;;;;;1.85;1.00;;;10.70;99.90;;;;;;5065175;28;20324;-57
2021/05/05 06:52:01;;;;;;;1.45;0.80;;;10.80;99.90;;;;;;5065499;28;20074;-57
2021/05/05 06:54:27;;;;;;;3.47;0.70;;;10.70;99.90;;;;;;5065334;28;20023;-57
2021/05/05 06:56:53;;;;;;;3.55;0.57;;;10.50;99.90;;;;;;5065045;28;20488;-57
2021/05/05 06:59:19;;;;;;;1.67;0.90;;;10.50;99.90;;;;;;5065875;28;20032;-57
2021/05/05 07:01:44;;;;;;;2.60;0.63;;;10.60;99.90;;;;;;5065619;28;20031;-57
2021/05/05 07:04:10;;;;;;;1.80;0.73;;;10.50;99.90;;;;;;5064505;28;20101;-57
2021/05/05 07:06:37;;;;;;;2.33;0.80;;;10.50;99.90;;;;;;5064691;28;20064;-57
2021/05/05 07:09:04;;;;;;;2.03;0.75;;;10.70;99.90;;;;;;5063868;28;20024;-57
2021/05/05 07:11:32;;;;;;;1.63;0.90;;;10.90;99.90;;;;;;5066420;28;20024;-56
2021/05/05 07:13:58;;;;;;;4.43;1.00;;;11.00;99.90;;;;;;5066503;28;20073;-56
2021/05/05 07:16:25;;;;;;;1.13;0.88;;;11.00;99.90;;;;;;5063634;28;20047;-57
2021/05/05 07:18:50;;;;;;;1.60;0.73;;;11.10;99.90;;;;;;5065191;28;20020;-56
2021/05/05 07:21:16;;;;;;;2.47;1.00;;;11.30;99.90;;;;;;5067365;28;20028;-56
2021/05/05 07:23:43;;;;;;;1.45;0.90;;;11.30;99.90;;;;;;5066255;28;20021;-56
2021/05/05 07:26:10;;;;;;;1.10;0.65;;;11.30;99.90;;;;;;5066608;28;20032;-56
2021/05/05 07:28:37;;;;;;;1.33;0.70;;;11.40;99.90;;;;;;5065814;28;20021;-56
2021/05/05 07:31:04;;;;;;;1.33;0.70;;;11.40;99.90;;;;;;5066485;28;20133;-57
2021/05/05 07:33:30;;;;;;;5.05;1.02;;;11.20;99.90;;;;;;5066130;28;20021;-56
2021/05/05 07:35:57;;;;;;;1.45;0.63;;;11.10;99.90;;;;;;5066405;28;20372;-56
2021/05/05 07:48:50;;;;;;;1.83;0.80;;;11.30;99.90;;;;;;5064148;28;20434;-57
2021/05/05 07:51:17;;;;;;;1.77;0.60;;;11.40;99.90;;;;;;5064969;28;20509;-57
2021/05/05 07:53:44;;;;;;;2.60;0.68;;;11.50;99.90;;;;;;5064578;28;20624;-57
2021/05/05 07:56:11;;;;;;;1.23;0.63;;;11.50;99.90;;;;;;5064721;28;20298;-57
2021/05/05 07:58:38;;;;;;;1.92;0.70;;;11.80;99.90;;;;;;5064362;28;20062;-57
2021/05/05 08:01:04;;;;;;;3.08;1.48;;;11.60;99.90;;;;;;5064682;28;20109;-56
2021/05/05 08:03:30;;;;;;;2.63;0.60;;;11.60;99.90;;;;;;5064187;28;20556;-57
2021/05/05 08:05:56;;;;;;;0.82;0.70;;;11.60;99.90;;;;;;5064713;28;20406;-57
2021/05/05 08:08:21;;;;;;;2.72;1.40;;;11.70;99.90;;;;;;5063718;28;20268;-57
2021/05/05 08:10:47;;;;;;;5.45;2.03;;;11.90;99.90;;;;;;5063223;28;20025;-57
2021/05/05 08:13:13;;;;;;;3.05;1.92;;;11.90;99.90;;;;;;5058081;28;20028;-56
2021/05/05 08:15:39;;;;;;;2.92;1.48;;;12.10;99.90;;;;;;5067693;28;20032;-57
2021/05/05 08:18:06;;;;;;;2.70;1.25;;;12.30;99.90;;;;;;5068037;28;20036;-57
2021/05/05 08:20:35;;;;;;;3.65;0.90;;;12.40;99.90;;;;;;5069370;28;20037;-57
2021/05/05 08:23:06;;;;;;;4.13;1.85;;;12.50;99.90;;;;;;5069416;28;20129;-57
2021/05/05 08:25:32;;;;;;;2.20;1.00;;;12.50;99.90;;;;;;5069184;28;20040;-56
2021/05/05 08:28:00;;;;;;;2.97;0.80;;;12.50;99.90;;;;;;5069476;28;20032;-57
2021/05/05 08:30:25;;;;;;;2.15;0.90;;;12.60;99.90;;;;;;5057368;28;20029;-56
2021/05/05 08:32:51;;;;;;;1.98;0.70;;;12.50;99.90;;;;;;5054380;28;20518;-57
2021/05/05 08:35:17;;;;;;;2.17;0.93;;;12.40;99.90;;;;;;5058460;28;20036;-56
2021/05/05 08:37:47;;;;;;;1.13;0.80;;;12.20;99.90;;;;;;5053837;28;20562;-57
2021/05/05 08:40:12;;;;;;;1.23;0.63;;;12.20;99.90;;;;;;5053843;28;20040;-57
2021/05/05 08:42:40;;;;;;;1.15;0.93;;;12.30;99.90;;;;;;5067000;28;20024;-57
2021/05/05 08:45:25;;;;;;;2.65;0.90;;;12.30;99.90;;;;;;5069201;28;20028;-56
2021/05/05 08:47:53;;;;;;;1.33;0.70;;;12.20;99.90;;;;;;5069286;28;20033;-57
2021/05/05 08:50:22;;;;;;;0.93;0.60;;;12.30;99.90;;;;;;5082129;28;20398;-56
2021/05/05 08:52:48;;;;;;;3.47;0.73;;;12.40;99.90;;;;;;5069545;28;20089;-57
2021/05/05 08:55:17;;;;;;;2.20;0.82;;;12.30;99.90;;;;;;5077103;28;20028;-56
2021/05/05 08:57:44;;;;;;;1.48;0.68;;;12.20;99.90;;;;;;5080116;28;20074;-56
2021/05/05 09:00:13;;;;;;;1.48;0.60;;;12.40;99.90;;;;;;5069029;28;20043;-56
2021/05/05 09:02:38;;;;;;;1.88;0.60;;;12.60;99.90;;;;;;5068552;28;20028;-56
2021/05/05 09:05:10;;;;;;;1.58;0.65;;;12.60;99.90;;;;;;5068898;28;20044;-57
2021/05/05 09:07:38;;;;;;;1.55;0.60;;;12.80;99.90;;;;;;5067504;28;20585;-56
2021/05/05 09:10:17;;;;;;;0.70;0.40;;;12.70;99.90;;;;;;5068164;28;20047;-56
2021/05/05 09:12:45;;;;;;;1.25;0.60;;;12.70;99.90;;;;;;5068279;28;20025;-57
2021/05/05 09:15:15;;;;;;;1.90;0.63;;;12.80;99.90;;;;;;5065697;28;20080;-56
2021/05/05 09:17:47;;;;;;;2.13;0.70;;;12.80;99.90;;;;;;5067039;28;20036;-56
2021/05/05 09:20:18;;;;;;;1.13;0.60;;;12.60;99.90;;;;;;5067993;28;20434;-56
2021/05/05 09:22:48;;;;;;;5.47;1.63;;;12.60;99.90;;;;;;5065781;28;20530;-56
2021/05/05 09:25:17;;;;;;;5.20;3.53;;;12.60;99.90;;;;;;5067158;28;20039;-56
2021/05/05 09:27:43;;;;;;;4.60;2.90;;;12.80;99.90;;;;;;5065777;28;20032;-56
2021/05/05 09:30:21;;;;;;;3.10;2.30;;;12.80;99.90;;;;;;5067234;28;20052;-57
2021/05/05 09:32:52;;;;;;;6.80;2.70;;;12.90;99.90;;;;;;5067575;28;20020;-56
2021/05/05 09:35:29;;;;;;;7.72;2.33;;;12.70;99.90;;;;;;5067552;28;20020;-56
2021/05/05 09:37:57;;;;;;;3.97;1.60;;;12.50;99.90;;;;;;5066700;28;20350;-57
2021/05/05 09:40:23;;;;;;;3.85;1.23;;;12.30;99.90;;;;;;5066637;28;20021;-57
2021/05/05 09:42:49;;;;;;;2.28;1.10;;;12.30;99.90;;;;;;5067445;28;20522;-57
2021/05/05 09:45:15;;;;;;;2.95;1.00;;;12.40;99.90;;;;;;5066686;28;20039;-57
2021/05/05 09:47:56;;;;;;;3.08;1.33;;;12.40;99.90;;;;;;5066141;28;20783;-57
2021/05/05 09:50:31;;;;;;;1.40;0.90;;;12.60;99.90;;;;;;5066453;28;20029;-57
2021/05/05 09:53:22;;;;;;;3.90;1.23;;;12.90;99.90;;;;;;5066463;28;20021;-57
2021/05/05 09:55:51;;;;;;;4.00;1.17;;;12.90;99.90;;;;;;5067095;28;20036;-56
2021/05/05 09:58:28;;;;;;;4.28;1.20;;;12.90;99.90;;;;;;5066752;28;20487;-57
2021/05/05 10:01:06;;;;;;;4.07;1.00;;;12.80;99.90;;;;;;5066205;28;20035;-57
2021/05/05 10:03:55;;;;;;;3.63;1.30;;;13.00;99.90;;;;;;5066070;28;20027;-56
2021/05/05 10:06:27;;;;;;;3.08;1.35;;;13.00;99.90;;;;;;5066004;28;20111;-56
2021/05/05 10:09:07;;;;;;;2.30;1.00;;;12.90;99.90;;;;;;5065696;28;20402;-56
2021/05/05 10:11:33;;;;;;;2.17;0.73;;;13.00;99.90;;;;;;5065794;28;20115;-56
2021/05/05 10:14:20;;;;;;;1.67;0.85;;;13.00;99.90;;;;;;5066040;28;20108;-57
2021/05/05 10:16:49;;;;;;;4.15;1.08;;;13.10;99.90;;;;;;5065529;28;20491;-56
2021/05/05 10:19:18;;;;;;;2.60;0.90;;;13.40;99.90;;;;;;5066221;28;20058;-56
2021/05/05 10:21:51;;;;;;;2.78;1.10;;;13.50;99.90;;;;;;5065769;28;20418;-56
2021/05/05 10:24:21;;;;;;;3.78;1.20;;;13.50;99.90;;;;;;5066588;28;20527;-56
2021/05/05 10:26:47;;;;;;;3.30;1.13;;;13.40;99.90;;;;;;5066385;28;20032;-56
2021/05/05 10:29:14;;;;;;;2.42;1.02;;;13.50;99.90;;;;;;5065810;28;20027;-56
2021/05/05 10:31:41;;;;;;;2.50;0.85;;;13.40;99.90;;;;;;5065457;28;20883;-56
2021/05/05 10:34:18;;;;;;;2.28;1.20;;;13.50;99.90;;;;;;5065794;28;20024;-56
2021/05/05 10:37:10;;;;;;;8.45;1.00;;;13.30;99.90;;;;;;5065672;28;20024;-56
2021/05/05 10:39:38;;;;;;;2.50;1.13;;;13.40;99.90;;;;;;5063918;28;20512;-56
2021/05/05 10:42:15;;;;;;;2.03;1.00;;;13.50;99.90;;;;;;5065439;28;20043;-56
2021/05/05 10:44:41;;;;;;;5.07;1.00;;;13.60;99.90;;;;;;5065100;28;20403;-57
2021/05/05 10:47:11;;;;;;;4.10;0.90;;;13.70;99.90;;;;;;5065545;28;20031;-57
2021/05/05 10:50:10;;;;;;;3.40;0.93;;;13.60;99.90;;;;;;5063132;28;20024;-57
2021/05/05 10:52:42;;;;;;;2.67;0.98;;;13.60;99.90;;;;;;5065188;28;20017;-57
2021/05/05 10:55:18;;;;;;;2.28;1.10;;;13.60;99.90;;;;;;5065638;28;20024;-57
2021/05/05 10:58:24;;;;;;;3.47;0.70;;;13.50;99.90;;;;;;5058545;28;20036;-57
2021/05/05 11:00:53;;;;;;;2.33;0.65;;;13.60;99.90;;;;;;5025120;28;20646;-56
2021/05/05 11:03:42;;;;;;;1.20;0.70;;;13.80;99.90;;;;;;5056875;28;20115;-57
2021/05/05 11:06:32;;;;;;;1.33;0.45;;;14.30;99.90;;;;;;5064730;28;20069;-57
2021/05/05 11:09:10;;;;;;;4.15;1.00;;;14.70;99.90;;;;;;5064388;28;20111;-57
2021/05/05 11:11:39;;;;;;;1.75;0.80;;;14.40;99.90;;;;;;5064991;28;20077;-57
2021/05/05 11:14:06;;;;;;;4.85;0.90;;;14.30;99.90;;;;;;5065187;28;20109;-57
2021/05/05 11:16:54;;;;;;;2.15;0.65;;;14.60;99.90;;;;;;5061088;28;20036;-57
2021/05/05 11:19:39;;;;;;;3.55;1.23;;;14.70;99.90;;;;;;5048923;28;20028;-57
2021/05/05 11:22:18;;;;;;;2.15;0.68;;;14.40;99.90;;;;;;5065051;28;20039;-57
2021/05/05 11:24:51;;;;;;;2.20;1.00;;;14.40;99.90;;;;;;5064883;28;20384;-57
2021/05/05 11:27:38;;;;;;;2.22;0.70;;;14.40;99.90;;;;;;5065429;28;20025;-57
2021/05/05 11:30:29;;;;;;;1.50;0.57;;;14.50;99.90;;;;;;5064610;28;20028;-57
2021/05/05 11:32:56;;;;;;;2.53;0.70;;;14.70;99.90;;;;;;5073429;28;20020;-57
2021/05/05 11:35:30;;;;;;;2.47;0.60;;;14.70;99.90;;;;;;5074461;28;20371;-57
2021/05/05 11:38:18;;;;;;;0.77;0.50;;;14.70;99.90;;;;;;5080566;28;20032;-57
2021/05/05 11:40:59;;;;;;;2.22;0.80;;;15.00;99.90;;;;;;5075225;28;20054;-57
2021/05/05 11:43:26;;;;;;;1.48;0.85;;;15.30;99.90;;;;;;5085872;28;20040;-57
2021/05/05 11:45:56;;;;;;;2.47;0.80;;;15.20;99.90;;;;;;5085917;28;20031;-57
2021/05/05 11:48:34;;;;;;;1.95;0.80;;;14.90;99.90;;;;;;5085848;28;20028;-57
2021/05/05 11:51:00;;;;;;;1.05;0.55;;;15.20;99.90;;;;;;5076131;28;20123;-57
2021/05/05 11:53:31;;;;;;;3.00;0.70;;;15.50;99.90;;;;;;5065971;28;20036;-57
2021/05/05 11:55:57;;;;;;;3.47;0.60;;;15.60;99.90;;;;;;5068760;28;20020;-58
2021/05/05 11:58:24;;;;;;;1.55;0.80;;;15.60;99.90;;;;;;5068462;28;20036;-58
2021/05/05 12:00:51;;;;;;;1.73;0.80;;;15.60;99.90;;;;;;5057215;28;20055;-57
2021/05/05 12:03:23;;;;;;;1.73;0.80;;;15.70;99.90;;;;;;5068975;28;20442;-57
2021/05/05 12:05:49;;;;;;;2.15;0.80;;;16.00;99.90;;;;;;5069081;28;20055;-57
2021/05/05 12:08:20;;;;;;;1.60;0.70;;;15.80;99.90;;;;;;5067072;28;20067;-57
2021/05/05 12:10:47;;;;;;;2.25;0.63;;;16.00;99.90;;;;;;5067234;28;20086;-57
2021/05/05 12:13:31;;;;;;;2.55;0.90;;;16.20;99.90;;;;;;5068054;28;20457;-58
2021/05/05 12:16:06;;;;;;;4.47;1.15;;;16.20;99.90;;;;;;5068356;28;20078;-58
2021/05/05 12:18:44;;;;;;;2.53;0.68;;;16.20;99.90;;;;;;5067731;28;20028;-58
2021/05/05 12:21:12;;;;;;;0.90;0.60;;;16.50;99.90;;;;;;5068512;28;20020;-57
2021/05/05 12:23:43;;;;;;;2.03;1.00;;;16.70;99.90;;;;;;5068206;28;20151;-58
2021/05/05 12:26:13;;;;;;;2.00;0.90;;;16.30;99.10;;;;;;5068241;28;20568;-58
2021/05/05 12:28:38;;;;;;;2.25;0.70;;;16.30;98.80;;;;;;5067949;28;20031;-58
2021/05/05 12:31:04;;;;;;;3.15;1.00;;;16.60;98.90;;;;;;5067997;28;20025;-57
2021/05/05 12:33:30;;;;;;;1.88;0.70;;;16.50;99.20;;;;;;5067755;28;20052;-58
2021/05/05 12:35:56;;;;;;;1.92;0.80;;;16.30;98.80;;;;;;5067999;28;20443;-57
2021/05/05 12:38:22;;;;;;;1.05;0.50;;;16.30;98.80;;;;;;5067629;28;20062;-58
2021/05/05 12:40:48;;;;;;;2.08;0.55;;;16.80;99.40;;;;;;5068833;28;20025;-57
2021/05/05 12:43:26;;;;;;;1.50;0.80;;;16.80;98.70;;;;;;5067779;28;20413;-58
2021/05/05 12:45:54;;;;;;;1.15;0.65;;;17.30;97.60;;;;;;5067727;28;20016;-58
2021/05/05 12:48:35;;;;;;;1.55;0.60;;;17.30;97.50;;;;;;5068034;28;20110;-58
2021/05/05 12:51:12;;;;;;;1.85;0.65;;;17.10;96.10;;;;;;5067719;28;20056;-58
2021/05/05 12:53:52;;;;;;;2.72;0.80;;;17.40;96.50;;;;;;5067206;28;20137;-58
2021/05/05 12:56:21;;;;;;;1.63;0.77;;;17.80;96.40;;;;;;5068273;28;20379;-58
2021/05/05 12:58:48;;;;;;;2.22;0.70;;;17.80;95.90;;;;;;5067981;28;20234;-57
2021/05/05 13:01:15;;;;;;;1.63;0.63;;;17.90;94.80;;;;;;5066245;28;20036;-57
2021/05/05 13:03:43;;;;;;;2.92;0.77;;;17.50;95.10;;;;;;5067140;28;20040;-57
2021/05/05 13:06:11;;;;;;;1.30;0.60;;;17.60;95.30;;;;;;5067450;28;20025;-57